Time;durP1;ratioP1;P1;durP2;ratioP2;P2;SDS_P1;SDS_P2;PMS_P1;PMS_P2;Temp;Humidity;BMP_temperature;BMP_pressure;BME280_temperature;BME280_humidity;BME280_pressure;Samples;Min_cycle;Max_cycle;Signal;HPM_P1;HPM_P2
2021/11/30 00:01:59;;;;;;;19.70;14.15;;;128.10;2252.80;;;;;;5078037;28;20031;-88
2021/11/30 00:04:45;;;;;;;22.17;14.18;;;128.00;2252.80;;;;;;5078020;28;20024;-89
2021/11/30 00:07:17;;;;;;;22.25;14.93;;;128.10;2252.80;;;;;;5077693;28;20059;-89
2021/11/30 00:12:25;;;;;;;26.20;17.58;;;128.00;2252.80;;;;;;5099652;28;20351;-87
2021/11/30 00:14:54;;;;;;;22.67;15.20;;;128.10;2252.80;;;;;;5083017;28;20020;-89
2021/11/30 00:17:41;;;;;;;19.48;13.38;;;128.10;2252.80;;;;;;5086178;28;20107;-89
2021/11/30 00:20:24;;;;;;;20.08;14.15;;;128.00;2252.80;;;;;;5080986;28;20063;-92
2021/11/30 00:22:50;;;;;;;22.67;16.05;;;128.00;2252.80;;;;;;5078351;28;20479;-93
2021/11/30 00:25:16;;;;;;;22.13;15.85;;;128.00;2252.80;;;;;;5078778;28;20023;-90
2021/11/30 00:27:42;;;;;;;20.13;13.70;;;128.00;2252.80;;;;;;5077571;28;20031;-88
2021/11/30 00:30:08;;;;;;;17.27;11.48;;;128.00;2252.80;;;;;;5095339;28;20028;-89
2021/11/30 00:32:34;;;;;;;20.67;10.52;;;103.30;2227.20;;;;;;5077619;28;20024;-91
2021/11/30 00:35:02;;;;;;;16.33;10.23;;;103.30;2227.20;;;;;;5077373;28;20027;-91
2021/11/30 00:37:28;;;;;;;12.88;9.20;;;103.10;2227.20;;;;;;5077306;28;20051;-91
2021/11/30 00:39:54;;;;;;;11.77;8.77;;;103.10;2227.20;;;;;;5077405;28;20482;-92
2021/11/30 00:42:24;;;;;;;10.10;7.47;;;103.00;2227.20;;;;;;5077535;28;20103;-91
2021/11/30 00:44:51;;;;;;;11.90;8.43;;;103.00;2227.20;;;;;;5077081;28;20073;-89
2021/11/30 00:47:19;;;;;;;14.05;9.63;;;103.00;2227.20;;;;;;5077082;28;20020;-90
2021/11/30 00:49:47;;;;;;;10.07;7.25;;;103.00;2227.20;;;;;;5077392;28;20114;-90
2021/11/30 00:52:14;;;;;;;11.10;8.48;;;102.70;2227.20;;;;;;5077188;28;20020;-93
2021/11/30 00:54:41;;;;;;;14.90;9.93;;;103.00;2227.20;;;;;;5076920;28;20016;-90
2021/11/30 00:57:07;;;;;;;16.08;10.55;;;103.00;2227.20;;;;;;5077326;28;20069;-89
2021/11/30 00:59:33;;;;;;;21.25;12.85;;;103.10;2227.20;;;;;;5077143;28;20024;-90
2021/11/30 01:01:59;;;;;;;26.85;16.85;;;103.10;2227.20;;;;;;5077093;28;20024;-92
2021/11/30 01:04:25;;;;;;;21.23;13.73;;;103.30;2227.20;;;;;;5076971;28;20111;-91
2021/11/30 01:06:51;;;;;;;22.55;14.23;;;103.20;2227.20;;;;;;5076999;28;20028;-90
2021/11/30 01:09:17;;;;;;;16.65;11.40;;;103.20;2227.20;;;;;;5077191;28;20035;-90
2021/11/30 01:11:44;;;;;;;13.00;9.15;;;103.10;2227.20;;;;;;5076917;28;20016;-92
2021/11/30 01:14:10;;;;;;;19.00;12.15;;;103.00;2227.20;;;;;;5077213;28;20024;-91
2021/11/30 01:16:36;;;;;;;21.88;14.13;;;103.10;2227.20;;;;;;5076998;28;20024;-91
2021/11/30 01:19:04;;;;;;;16.70;11.73;;;103.10;2227.20;;;;;;5076796;28;20040;-91
2021/11/30 01:21:30;;;;;;;25.08;13.02;;;103.10;2227.20;;;;;;5077091;28;20017;-90
2021/11/30 01:23:56;;;;;;;9.27;7.03;;;103.30;2227.20;;;;;;5077130;28;20024;-90
2021/11/30 01:26:22;;;;;;;12.70;8.10;;;102.90;2227.20;;;;;;5077174;28;20159;-91
2021/11/30 01:28:48;;;;;;;12.05;7.85;;;103.00;2227.20;;;;;;5076796;28;20016;-91
2021/11/30 01:31:14;;;;;;;9.32;6.97;;;102.90;2227.20;;;;;;5077020;28;20024;-92
2021/11/30 01:33:39;;;;;;;10.02;7.38;;;102.80;2227.20;;;;;;5077009;28;20043;-91
2021/11/30 01:36:06;;;;;;;10.65;7.72;;;102.90;2227.20;;;;;;5076919;28;20024;-91
2021/11/30 01:38:32;;;;;;;10.95;7.80;;;102.80;2227.20;;;;;;5076643;28;20028;-92
2021/11/30 01:41:01;;;;;;;12.20;8.02;;;102.90;2227.20;;;;;;5076679;28;20056;-90
2021/11/30 01:43:35;;;;;;;12.68;8.15;;;102.80;2227.20;;;;;;5076568;28;20016;-91
2021/11/30 01:46:07;;;;;;;10.43;7.38;;;102.80;2227.20;;;;;;5094470;28;20021;-90
2021/11/30 01:51:17;;;;;;;12.60;8.45;;;102.70;2227.20;;;;;;5094839;28;20066;-91
2021/11/30 01:53:43;;;;;;;13.82;8.82;;;102.60;2227.20;;;;;;5076448;28;20020;-92
2021/11/30 01:56:09;;;;;;;10.68;8.00;;;102.60;2227.20;;;;;;5076617;28;20103;-91
2021/11/30 01:58:35;;;;;;;12.52;8.85;;;102.50;2227.20;;;;;;5076609;28;20031;-91
2021/11/30 02:01:01;;;;;;;10.02;7.68;;;102.50;2227.20;;;;;;5076623;28;20026;-91
2021/11/30 02:03:27;;;;;;;10.23;7.75;;;102.50;2227.20;;;;;;5076408;28;20043;-92
2021/11/30 02:05:53;;;;;;;10.35;7.07;;;102.50;2227.20;;;;;;5076977;28;20069;-92
2021/11/30 02:08:19;;;;;;;9.45;6.68;;;102.40;2227.20;;;;;;5080348;28;20047;-91
2021/11/30 02:10:45;;;;;;;9.10;7.00;;;102.50;2227.20;;;;;;5080094;28;20467;-90
2021/11/30 02:13:11;;;;;;;8.70;6.10;;;77.70;2227.20;;;;;;5080277;28;20027;-93
2021/11/30 02:15:45;;;;;;;8.25;6.70;;;102.40;2227.20;;;;;;5080197;28;20101;-91
2021/11/30 02:18:21;;;;;;;8.38;6.28;;;102.40;2227.20;;;;;;5080646;28;20463;-90
2021/11/30 02:20:47;;;;;;;9.30;6.90;;;77.70;2227.20;;;;;;5079857;28;20055;-92
2021/11/30 02:23:30;;;;;;;12.07;8.73;;;102.40;2227.20;;;;;;5080181;28;20165;-91
2021/11/30 02:25:57;;;;;;;17.33;11.32;;;102.40;2227.20;;;;;;5080172;28;20099;-93
2021/11/30 02:28:23;;;;;;;13.60;9.60;;;102.40;2227.20;;;;;;5080116;28;20026;-91
2021/11/30 02:30:49;;;;;;;11.77;7.55;;;102.40;2227.20;;;;;;5079827;28;20053;-90
2021/11/30 02:33:15;;;;;;;12.65;9.10;;;77.70;2227.20;;;;;;5080084;28;20016;-90
2021/11/30 02:35:41;;;;;;;14.98;10.43;;;77.70;2227.20;;;;;;5080303;28;20024;-91
2021/11/30 02:38:08;;;;;;;11.35;7.82;;;102.40;2227.20;;;;;;5079664;28;20020;-90
2021/11/30 02:40:37;;;;;;;9.73;6.53;;;77.70;2227.20;;;;;;5079554;28;20026;-90
2021/11/30 02:43:04;;;;;;;9.73;7.63;;;77.70;2227.20;;;;;;5079436;28;20012;-91
2021/11/30 02:45:31;;;;;;;10.35;7.65;;;77.70;2227.20;;;;;;5079641;28;20027;-91
2021/11/30 02:47:57;;;;;;;13.77;9.73;;;77.70;2227.20;;;;;;5079637;28;20016;-91
2021/11/30 02:50:23;;;;;;;12.43;8.60;;;77.60;2227.20;;;;;;5079245;28;20482;-91
2021/11/30 02:52:49;;;;;;;12.50;9.10;;;77.70;2227.20;;;;;;5079313;28;20020;-91
2021/11/30 02:55:15;;;;;;;10.63;7.78;;;77.50;2227.20;;;;;;5079582;28;20077;-90
2021/11/30 02:57:41;;;;;;;12.45;8.65;;;77.60;2227.20;;;;;;5079393;28;20027;-89
2021/11/30 03:00:08;;;;;;;11.70;8.63;;;77.40;2227.20;;;;;;5079295;28;20038;-91
2021/11/30 03:02:36;;;;;;;11.82;9.07;;;77.40;2227.20;;;;;;5079104;28;20154;-90
2021/11/30 03:05:04;;;;;;;11.27;7.75;;;77.40;2227.20;;;;;;5079182;28;20051;-91
2021/11/30 03:07:38;;;;;;;13.35;9.60;;;77.30;2227.20;;;;;;5079317;28;20477;-91
2021/11/30 03:10:18;;;;;;;14.77;9.35;;;77.30;2227.20;;;;;;5079227;28;20768;-90
2021/11/30 03:12:46;;;;;;;13.43;9.45;;;77.30;2227.20;;;;;;5079139;28;20081;-93
2021/11/30 03:15:21;;;;;;;13.80;9.88;;;77.40;2227.20;;;;;;5079007;28;20108;-91
2021/11/30 03:17:48;;;;;;;14.10;9.95;;;77.30;2227.20;;;;;;5078843;28;20031;-90
2021/11/30 03:20:15;;;;;;;13.95;10.50;;;77.20;2227.20;;;;;;5078663;28;20032;-91
2021/11/30 03:22:42;;;;;;;14.90;10.32;;;77.30;2227.20;;;;;;5078878;28;20016;-90
2021/11/30 03:25:10;;;;;;;15.93;11.40;;;77.30;2227.20;;;;;;5078962;28;20467;-90
2021/11/30 03:27:36;;;;;;;13.85;10.23;;;77.30;2227.20;;;;;;5078525;28;20412;-90
2021/11/30 03:30:08;;;;;;;15.15;10.50;;;77.10;2227.20;;;;;;5078358;28;20016;-92
2021/11/30 03:35:19;;;;;;;15.57;12.25;;;77.20;2227.20;;;;;;5096785;28;20066;-91
2021/11/30 03:37:45;;;;;;;18.23;12.57;;;77.20;2227.20;;;;;;5078765;28;20016;-91
2021/11/30 03:40:11;;;;;;;15.15;11.25;;;77.10;2227.20;;;;;;5078535;28;20020;-89
2021/11/30 03:42:38;;;;;;;20.67;13.30;;;77.10;2227.20;;;;;;5078557;28;20102;-90
2021/11/30 03:45:07;;;;;;;19.52;12.18;;;77.10;2227.20;;;;;;5078557;28;20463;-89
2021/11/30 03:47:32;;;;;;;17.13;12.40;;;77.00;2227.20;;;;;;5078357;28;20028;-90
2021/11/30 03:49:58;;;;;;;19.23;12.95;;;77.10;2227.20;;;;;;5078329;28;20020;-90
2021/11/30 03:52:24;;;;;;;19.00;12.40;;;77.10;2227.20;;;;;;5078031;28;20035;-90
2021/11/30 03:54:50;;;;;;;16.85;12.48;;;77.10;2227.20;;;;;;5078279;28;20024;-90
2021/11/30 03:57:16;;;;;;;18.45;13.77;;;77.30;2227.20;;;;;;5078358;28;20043;-91
2021/11/30 03:59:42;;;;;;;20.33;14.00;;;77.20;2227.20;;;;;;5078337;28;20463;-92
2021/11/30 04:02:08;;;;;;;18.83;13.05;;;77.40;2227.20;;;;;;5078053;28;20094;-92
2021/11/30 04:04:41;;;;;;;18.55;12.60;;;77.40;2227.20;;;;;;5077907;28;20024;-89
2021/11/30 04:07:07;;;;;;;18.85;13.27;;;77.30;2227.20;;;;;;5078151;28;20047;-89
2021/11/30 04:09:33;;;;;;;21.20;13.10;;;77.40;2227.20;;;;;;5077761;28;20449;-90
2021/11/30 04:11:59;;;;;;;17.95;12.98;;;77.40;2227.20;;;;;;5077828;28;20020;-91
2021/11/30 04:14:26;;;;;;;21.65;14.25;;;77.50;2227.20;;;;;;5077994;28;20020;-90
2021/11/30 04:16:51;;;;;;;17.08;12.75;;;77.50;2227.20;;;;;;5077975;28;20024;-90
2021/11/30 04:19:17;;;;;;;21.42;15.13;;;77.50;2227.20;;;;;;5077373;28;20051;-91
2021/11/30 04:21:43;;;;;;;19.63;14.80;;;77.50;2227.20;;;;;;5077870;28;20020;-90
2021/11/30 04:24:10;;;;;;;19.30;13.25;;;77.50;2227.20;;;;;;5077475;28;20107;-91
2021/11/30 04:26:36;;;;;;;18.00;12.75;;;77.70;2227.20;;;;;;5077629;28;20017;-93
2021/11/30 04:29:02;;;;;;;19.58;12.95;;;77.50;2227.20;;;;;;5077307;28;20023;-91
2021/11/30 04:31:30;;;;;;;20.88;14.70;;;77.40;2227.20;;;;;;5077391;28;20157;-91
2021/11/30 04:33:56;;;;;;;17.42;12.40;;;77.30;2227.20;;;;;;5077576;28;20106;-91
2021/11/30 04:36:22;;;;;;;19.77;13.45;;;77.40;2227.20;;;;;;5077540;28;20051;-91
2021/11/30 04:38:48;;;;;;;25.42;16.77;;;77.30;2227.20;;;;;;5077496;28;20103;-90
2021/11/30 04:41:13;;;;;;;21.45;15.15;;;77.40;2227.20;;;;;;5077742;28;20024;-91
2021/11/30 04:43:40;;;;;;;26.85;17.83;;;77.40;2227.20;;;;;;5077663;28;20047;-91
2021/11/30 04:46:18;;;;;;;20.75;14.80;;;77.40;2227.20;;;;;;5077146;28;20023;-92
2021/11/30 04:48:58;;;;;;;19.98;14.52;;;77.50;2227.20;;;;;;5077550;28;20024;-90
2021/11/30 04:51:29;;;;;;;19.50;14.68;;;77.50;2227.20;;;;;;5077575;28;20024;-90
2021/11/30 04:53:55;;;;;;;20.13;13.32;;;77.50;2227.20;;;;;;5077043;28;20024;-91
2021/11/30 04:56:21;;;;;;;20.02;12.75;;;77.50;2227.20;;;;;;5077422;28;20112;-90
2021/11/30 04:58:47;;;;;;;21.13;14.02;;;77.50;2227.20;;;;;;5077395;28;20052;-90
2021/11/30 05:01:17;;;;;;;21.25;14.45;;;77.50;2227.20;;;;;;5076860;28;20471;-89
2021/11/30 05:03:43;;;;;;;21.23;14.25;;;77.40;2227.20;;;;;;5077122;28;20020;-90
2021/11/30 05:06:12;;;;;;;26.52;17.98;;;77.50;2227.20;;;;;;5077069;28;20073;-92
2021/11/30 05:08:38;;;;;;;20.95;15.38;;;77.50;2227.20;;;;;;5077020;28;20363;-91
2021/11/30 05:11:04;;;;;;;22.27;15.63;;;77.50;2227.20;;;;;;5077084;28;20107;-91
2021/11/30 05:13:30;;;;;;;26.38;16.92;;;77.20;2227.20;;;;;;5077075;28;20115;-90
2021/11/30 05:15:56;;;;;;;18.42;12.95;;;77.40;2227.20;;;;;;5077006;28;20035;-90
2021/11/30 05:18:22;;;;;;;19.27;14.38;;;77.40;2227.20;;;;;;5076970;28;20032;-90
2021/11/30 05:20:49;;;;;;;20.63;13.82;;;77.50;2227.20;;;;;;5076587;28;20068;-91
2021/11/30 05:23:23;;;;;;;20.17;14.00;;;77.50;2227.20;;;;;;5076654;28;20417;-92
2021/11/30 05:25:49;;;;;;;23.27;15.65;;;77.50;2227.20;;;;;;5094945;28;20043;-90
2021/11/30 05:28:15;;;;;;;21.77;14.27;;;77.50;2227.20;;;;;;5076990;28;20016;-92
2021/11/30 05:30:41;;;;;;;22.98;17.20;;;77.50;2227.20;;;;;;5076586;28;20016;-90
2021/11/30 05:33:10;;;;;;;22.90;15.15;;;77.40;2227.20;;;;;;5076937;28;20099;-89
2021/11/30 05:35:36;;;;;;;30.10;19.00;;;77.40;2227.20;;;;;;5076748;28;20016;-88
2021/11/30 05:38:02;;;;;;;28.67;16.10;;;77.30;2227.20;;;;;;5077200;28;20024;-90
2021/11/30 05:40:28;;;;;;;20.88;13.25;;;77.50;2227.20;;;;;;5076602;28;20025;-90
2021/11/30 05:42:54;;;;;;;22.13;14.02;;;77.40;2227.20;;;;;;5080757;28;20020;-89
2021/11/30 05:45:21;;;;;;;23.42;14.90;;;77.40;2227.20;;;;;;5083737;28;20024;-87
2021/11/30 05:47:47;;;;;;;24.02;16.00;;;77.40;2227.20;;;;;;5087936;28;20023;-91
2021/11/30 05:50:13;;;;;;;25.25;14.98;;;77.50;2227.20;;;;;;5080573;28;20032;-90
2021/11/30 05:52:39;;;;;;;22.73;14.10;;;77.50;2227.20;;;;;;5080809;28;20020;-88
2021/11/30 05:55:06;;;;;;;24.60;15.27;;;77.50;2227.20;;;;;;5080854;28;20024;-89
2021/11/30 05:57:32;;;;;;;34.15;24.45;;;77.50;2227.20;;;;;;5080373;28;20031;-90
2021/11/30 06:00:00;;;;;;;24.58;16.55;;;77.50;2227.20;;;;;;5080298;28;20028;-89
2021/11/30 06:02:29;;;;;;;25.85;17.58;;;77.60;2227.20;;;;;;5080118;28;20028;-90
2021/11/30 06:04:55;;;;;;;36.17;21.70;;;77.50;2227.20;;;;;;5080202;28;20020;-89
2021/11/30 06:07:21;;;;;;;30.08;19.70;;;77.50;2227.20;;;;;;5080267;28;20022;-90
2021/11/30 06:09:47;;;;;;;21.42;15.45;;;77.50;2227.20;;;;;;5080124;28;20498;-88
2021/11/30 06:12:13;;;;;;;17.95;13.00;;;77.50;2227.20;;;;;;5080006;28;20032;-90
2021/11/30 06:14:39;;;;;;;24.63;16.13;;;77.50;2227.20;;;;;;5080090;28;20024;-88
2021/11/30 06:17:06;;;;;;;29.70;18.27;;;77.60;2227.20;;;;;;5080061;28;20123;-90
2021/11/30 06:19:34;;;;;;;32.88;19.92;;;77.70;2227.20;;;;;;5079605;28;20047;-90
2021/11/30 06:22:00;;;;;;;32.78;21.83;;;77.70;2227.20;;;;;;5080083;28;20111;-88
2021/11/30 06:24:26;;;;;;;34.40;22.55;;;77.70;2227.20;;;;;;5079952;28;20047;-90
2021/11/30 06:26:52;;;;;;;25.83;17.58;;;77.70;2227.20;;;;;;5079857;28;20016;-90
2021/11/30 06:29:19;;;;;;;28.92;18.67;;;77.70;2227.20;;;;;;5079998;28;20069;-91
2021/11/30 06:31:45;;;;;;;28.85;18.30;;;77.70;2227.20;;;;;;5079725;28;20035;-89
2021/11/30 06:34:11;;;;;;;26.40;17.38;;;77.70;2227.20;;;;;;5079977;28;20043;-90
2021/11/30 06:36:37;;;;;;;23.95;15.30;;;77.70;2227.20;;;;;;5079289;28;20455;-88
2021/11/30 06:39:04;;;;;;;22.95;16.10;;;77.60;2227.20;;;;;;5079507;28;20020;-89
2021/11/30 06:41:30;;;;;;;19.70;13.95;;;77.60;2227.20;;;;;;5079542;28;20069;-89
2021/11/30 06:43:56;;;;;;;20.90;15.38;;;77.70;2227.20;;;;;;5079405;28;20020;-88
2021/11/30 06:46:22;;;;;;;22.55;15.02;;;77.70;2227.20;;;;;;5079561;28;20435;-90
2021/11/30 06:48:48;;;;;;;30.63;20.80;;;77.70;2227.20;;;;;;5079190;28;20024;-89
2021/11/30 06:51:15;;;;;;;31.20;20.63;;;77.70;2227.20;;;;;;5079519;28;20020;-92
2021/11/30 06:53:41;;;;;;;26.27;15.98;;;77.70;2227.20;;;;;;5097261;28;20020;-90
2021/11/30 06:56:07;;;;;;;28.30;17.02;;;77.70;2227.20;;;;;;5079630;28;20020;-89
2021/11/30 06:58:32;;;;;;;21.20;14.48;;;77.70;2227.20;;;;;;5079411;28;20015;-89
2021/11/30 07:00:58;;;;;;;33.30;20.80;;;77.70;2227.20;;;;;;5079343;28;20024;-90
2021/11/30 07:03:25;;;;;;;56.83;31.60;;;77.70;2227.20;;;;;;5079306;28;20024;-90
2021/11/30 07:06:01;;;;;;;33.53;22.30;;;102.40;2227.20;;;;;;5079068;28;20121;-89
2021/11/30 07:11:46;;;;;;;36.42;27.90;;;102.40;2227.20;;;;;;5096993;28;20478;-90
2021/11/30 07:14:09;;;;;;;26.50;19.17;;;102.40;2227.20;;;;;;5096475;28;20020;-89
2021/11/30 07:16:35;;;;;;;20.65;14.07;;;102.40;2227.20;;;;;;5079129;28;20379;-88
2021/11/30 07:19:01;;;;;;;28.50;20.40;;;77.70;2227.20;;;;;;5078430;28;20055;-91
2021/11/30 07:21:28;;;;;;;31.20;24.23;;;77.70;2227.20;;;;;;5078918;28;20016;-89
2021/11/30 07:23:55;;;;;;;28.80;20.67;;;102.50;2227.20;;;;;;5079055;28;20027;-89
2021/11/30 07:26:21;;;;;;;22.52;16.30;;;102.40;2227.20;;;;;;5078776;28;20027;-89
2021/11/30 07:28:47;;;;;;;17.08;12.73;;;102.40;2227.20;;;;;;5078778;28;20020;-88
2021/11/30 07:31:14;;;;;;;20.27;14.85;;;102.50;2227.20;;;;;;5078766;28;20115;-90
2021/11/30 07:33:44;;;;;;;22.23;14.90;;;102.60;2227.20;;;;;;5078754;28;20020;-91
2021/11/30 07:36:11;;;;;;;19.23;14.10;;;102.50;2227.20;;;;;;5078807;28;20111;-91
2021/11/30 07:38:38;;;;;;;18.38;13.63;;;102.50;2227.20;;;;;;5078656;28;20367;-88
2021/11/30 07:41:06;;;;;;;18.38;13.30;;;102.60;2227.20;;;;;;5078685;28;20456;-89
2021/11/30 07:43:32;;;;;;;21.42;14.95;;;102.50;2227.20;;;;;;5078927;28;20466;-91
2021/11/30 07:45:58;;;;;;;21.27;13.18;;;102.50;2227.20;;;;;;5078553;28;20030;-89
2021/11/30 07:48:27;;;;;;;23.88;17.15;;;102.50;2227.20;;;;;;5078424;28;20083;-88
2021/11/30 07:50:54;;;;;;;22.73;13.95;;;102.50;2227.20;;;;;;5078383;28;20024;-91
2021/11/30 07:53:21;;;;;;;21.95;15.10;;;102.60;2227.20;;;;;;5078423;28;20060;-90
2021/11/30 07:55:47;;;;;;;21.58;14.43;;;102.60;2227.20;;;;;;5078370;28;20028;-91
2021/11/30 07:58:13;;;;;;;24.88;15.43;;;102.50;2227.20;;;;;;5078456;28;20028;-90
2021/11/30 08:00:39;;;;;;;26.70;17.73;;;102.50;2227.20;;;;;;5078747;28;20115;-90
2021/11/30 08:03:05;;;;;;;22.80;18.17;;;102.60;2227.20;;;;;;5077765;28;20031;-90
2021/11/30 08:05:32;;;;;;;43.83;31.75;;;102.60;2227.20;;;;;;5077988;28;20028;-88
2021/11/30 08:07:58;;;;;;;36.45;27.27;;;102.60;2227.20;;;;;;5078222;28;20020;-90
2021/11/30 08:10:27;;;;;;;28.95;21.40;;;102.70;2227.20;;;;;;5078128;28;20030;-89
2021/11/30 08:12:52;;;;;;;29.23;20.55;;;102.60;2227.20;;;;;;5078187;28;20394;-89
2021/11/30 08:15:18;;;;;;;35.80;25.75;;;102.60;2227.20;;;;;;5077568;28;20031;-87
2021/11/30 08:17:44;;;;;;;39.38;25.42;;;102.60;2227.20;;;;;;5077752;28;20020;-88
2021/11/30 08:20:11;;;;;;;30.70;19.98;;;102.60;2227.20;;;;;;5077504;28;20044;-91
2021/11/30 08:22:39;;;;;;;36.58;22.75;;;102.60;2227.20;;;;;;5077846;28;20020;-90
2021/11/30 08:25:16;;;;;;;25.25;18.48;;;102.80;2227.20;;;;;;5077775;28;20110;-90
2021/11/30 08:27:42;;;;;;;29.15;19.63;;;102.80;2227.20;;;;;;5078072;28;20016;-90
2021/11/30 08:30:09;;;;;;;31.80;20.52;;;102.70;2227.20;;;;;;5077624;28;20035;-89
2021/11/30 08:32:37;;;;;;;35.90;22.85;;;102.70;2227.20;;;;;;5077581;28;20077;-88
2021/11/30 08:35:04;;;;;;;32.10;20.60;;;102.70;2227.20;;;;;;5077602;28;20469;-89
2021/11/30 08:37:30;;;;;;;23.45;17.65;;;102.70;2227.20;;;;;;5077992;28;20020;-89
2021/11/30 08:39:56;;;;;;;25.80;19.00;;;102.70;2227.20;;;;;;5077405;28;20356;-90
2021/11/30 08:42:23;;;;;;;26.27;18.45;;;103.00;2227.20;;;;;;5077436;28;20031;-88
2021/11/30 08:44:51;;;;;;;23.75;16.85;;;102.90;2227.20;;;;;;5077558;28;20107;-91
2021/11/30 08:47:22;;;;;;;28.60;21.02;;;103.00;2227.20;;;;;;5077455;28;20517;-88
2021/11/30 08:49:48;;;;;;;25.75;18.60;;;103.00;2227.20;;;;;;5079599;28;20024;-88
2021/11/30 08:52:18;;;;;;;24.02;16.00;;;103.00;2227.20;;;;;;5083132;28;20019;-88
2021/11/30 08:54:45;;;;;;;30.70;19.67;;;103.00;2227.20;;;;;;5083850;28;20020;-90
2021/11/30 08:57:12;;;;;;;28.02;16.58;;;103.00;2227.20;;;;;;5083541;28;20092;-88
2021/11/30 08:59:38;;;;;;;28.63;20.15;;;103.00;2227.20;;;;;;5083853;28;20032;-88
2021/11/30 09:02:06;;;;;;;29.08;20.60;;;103.00;2227.20;;;;;;5083607;28;20087;-89
2021/11/30 09:04:32;;;;;;;30.33;21.33;;;103.00;2227.20;;;;;;5101313;28;20026;-90
2021/11/30 09:06:58;;;;;;;20.83;14.82;;;103.10;2227.20;;;;;;5083224;28;20462;-88
2021/11/30 09:09:23;;;;;;;23.08;16.20;;;103.00;2227.20;;;;;;5080722;28;20048;-88
2021/11/30 09:11:49;;;;;;;32.10;22.00;;;103.00;2227.20;;;;;;5077236;28;20031;-88
2021/11/30 09:14:20;;;;;;;21.55;14.77;;;103.10;2227.20;;;;;;5077210;28;20344;-90
2021/11/30 09:16:46;;;;;;;24.42;17.27;;;103.00;2227.20;;;;;;5076998;28;20020;-87
2021/11/30 09:19:12;;;;;;;21.52;15.82;;;103.00;2227.20;;;;;;5076517;28;20098;-88
2021/11/30 09:21:37;;;;;;;17.20;11.88;;;103.00;2227.20;;;;;;5077225;28;20028;-89
2021/11/30 09:24:03;;;;;;;22.95;16.13;;;102.90;2227.20;;;;;;5081627;28;20020;-86
2021/11/30 09:26:29;;;;;;;32.47;20.95;;;102.90;2227.20;;;;;;5089505;28;20103;-89
2021/11/30 09:28:55;;;;;;;26.10;19.20;;;102.90;2227.20;;;;;;5077236;28;20020;-89
2021/11/30 09:31:21;;;;;;;18.98;13.85;;;102.90;2227.20;;;;;;5078904;28;20020;-91
2021/11/30 09:33:47;;;;;;;19.65;15.27;;;102.90;2227.20;;;;;;5076794;28;20020;-88
2021/11/30 09:36:13;;;;;;;25.58;18.13;;;103.00;2227.20;;;;;;5076882;28;20024;-88
2021/11/30 09:38:40;;;;;;;20.10;14.95;;;103.00;2227.20;;;;;;5076678;28;20020;-88
2021/11/30 09:41:07;;;;;;;18.90;13.75;;;103.00;2227.20;;;;;;5076718;28;20030;-88
2021/11/30 09:43:35;;;;;;;22.70;16.23;;;103.10;2227.20;;;;;;5076805;28;20408;-89
2021/11/30 09:46:03;;;;;;;36.20;20.90;;;103.10;2227.20;;;;;;5076686;28;20025;-90
2021/11/30 09:48:30;;;;;;;17.88;12.50;;;103.10;2227.20;;;;;;5076691;28;20368;-89
2021/11/30 09:50:58;;;;;;;19.58;13.73;;;103.30;2227.20;;;;;;5076655;28;20024;-89
2021/11/30 09:53:28;;;;;;;25.95;16.75;;;103.00;2227.20;;;;;;5076686;28;20363;-89
2021/11/30 09:55:54;;;;;;;25.25;17.13;;;102.90;2227.20;;;;;;5076747;28;20565;-91
2021/11/30 09:58:22;;;;;;;18.48;14.18;;;103.00;2227.20;;;;;;5076629;28;20027;-90
2021/11/30 10:00:50;;;;;;;30.70;20.52;;;102.90;2227.20;;;;;;5076390;28;20024;-87
2021/11/30 10:03:18;;;;;;;29.35;20.92;;;102.90;2227.20;;;;;;5094555;28;20028;-89
2021/11/30 10:05:44;;;;;;;25.63;17.45;;;102.80;2227.20;;;;;;5076592;28;20016;-88
2021/11/30 10:08:44;;;;;;;31.90;22.55;;;102.80;2227.20;;;;;;5076572;28;20024;-88
2021/11/30 10:11:35;;;;;;;31.80;22.35;;;103.00;2227.20;;;;;;5023223;28;20032;-91
2021/11/30 10:14:38;;;;;;;39.00;27.13;;;103.10;2227.20;;;;;;5076626;28;20055;-91
2021/11/30 10:17:09;;;;;;;;;;;103.10;2227.20;;;;;;5076780;28;20016;-89
2021/11/30 10:19:45;;;;;;;18.27;13.65;;;103.10;2227.20;;;;;;5076127;28;19916;-90
2021/11/30 10:23:11;;;;;;;33.78;22.50;;;103.10;2227.20;;;;;;5076754;28;20131;-90
2021/11/30 10:26:20;;;;;;;21.05;15.65;;;103.00;2227.20;;;;;;5076527;28;20031;-92
2021/11/30 10:29:08;;;;;;;20.52;14.52;;;103.00;2227.20;;;;;;5078621;28;20513;-89
2021/11/30 10:32:03;;;;;;;19.65;14.85;;;102.90;2227.20;;;;;;5079969;28;20024;-92
2021/11/30 10:34:29;;;;;;;19.60;13.93;;;102.90;2227.20;;;;;;5079533;28;20016;-83
2021/11/30 10:37:07;;;;;;;20.80;14.85;;;102.90;2227.20;;;;;;5079599;28;20024;-90
2021/11/30 10:39:37;;;;;;;26.30;19.05;;;103.00;2227.20;;;;;;5079761;28;20028;-90
2021/11/30 10:42:18;;;;;;;21.15;15.32;;;103.10;2227.20;;;;;;5079651;28;20024;-91
2021/11/30 10:44:55;;;;;;;26.77;17.63;;;103.20;2227.20;;;;;;5078993;28;20081;-88
2021/11/30 10:47:40;;;;;;;17.75;12.43;;;103.30;2227.20;;;;;;5079776;28;20056;-87
2021/11/30 10:50:11;;;;;;;23.65;14.68;;;103.20;2227.20;;;;;;5079764;28;20513;-88
2021/11/30 10:53:17;;;;;;;30.70;17.17;;;128.00;2252.80;;;;;;5079899;28;20030;-92
2021/11/30 10:56:47;;;;;;;42.72;23.02;;;128.00;2252.80;;;;;;5079647;28;20020;-92
2021/11/30 11:06:35;;;;;;;16.73;11.05;;;128.60;2252.80;;;;;;5019332;28;20058;-85
2021/11/30 11:09:04;;;;;;;11.43;8.35;;;128.60;2252.80;;;;;;5078772;28;20478;-88
2021/11/30 11:11:37;;;;;;;28.45;19.23;;;128.60;2252.80;;;;;;5078886;28;20043;-85
2021/11/30 11:14:27;;;;;;;35.92;22.20;;;128.60;2252.80;;;;;;5078718;28;20440;-87
2021/11/30 11:17:01;;;;;;;26.60;17.05;;;153.60;2252.80;;;;;;5096832;28;20020;-85
2021/11/30 11:19:42;;;;;;;42.92;26.08;;;128.90;2252.80;;;;;;5078354;28;20051;-87
2021/11/30 11:22:15;;;;;;;30.92;19.80;;;128.90;2252.80;;;;;;5078528;28;20020;-87
2021/11/30 11:24:49;;;;;;;18.35;13.63;;;128.80;2252.80;;;;;;5078599;28;20024;-93
2021/11/30 11:27:37;;;;;;;12.55;10.70;;;128.80;2252.80;;;;;;5078941;28;20031;-89
2021/11/30 11:30:05;;;;;;;13.18;8.82;;;153.60;2252.80;;;;;;5078242;28;20032;-88
2021/11/30 11:32:31;;;;;;;12.60;9.15;;;153.80;2252.80;;;;;;5078461;28;20020;-89
2021/11/30 11:34:59;;;;;;;11.23;7.90;;;153.80;2252.80;;;;;;5078718;28;20359;-89
2021/11/30 11:37:25;;;;;;;23.00;15.07;;;153.80;2252.80;;;;;;5078335;28;20104;-90
2021/11/30 11:39:51;;;;;;;19.92;13.00;;;153.90;2252.80;;;;;;5078207;28;20032;-88
2021/11/30 11:42:20;;;;;;;16.67;11.77;;;154.10;2252.80;;;;;;5078490;28;20016;-89
2021/11/30 11:44:46;;;;;;;19.25;14.32;;;179.30;2252.80;;;;;;5078431;28;20020;-89
2021/11/30 11:47:16;;;;;;;13.50;9.30;;;179.30;2252.80;;;;;;5078183;28;20016;-86
2021/11/30 11:49:45;;;;;;;22.05;13.80;;;179.30;2252.80;;;;;;5077987;28;20115;-87
2021/11/30 11:52:35;;;;;;;26.65;17.17;;;179.80;2252.80;;;;;;5077856;28;20448;-86
2021/11/30 11:55:22;;;;;;;13.30;9.02;;;204.80;2252.80;;;;;;5078074;28;20452;-85
2021/11/30 11:58:01;;;;;;;14.63;11.27;;;180.10;2252.80;;;;;;5078104;28;20027;-89
2021/11/30 12:00:32;;;;;;;9.43;7.03;;;180.10;2252.80;;;;;;5095869;28;20024;-86
2021/11/30 12:03:04;;;;;;;15.45;12.60;;;204.80;2252.80;;;;;;5078246;28;20024;-89
2021/11/30 12:05:42;;;;;;;11.57;8.20;;;205.00;2252.80;;;;;;5077755;28;20523;-84
2021/11/30 12:08:32;;;;;;;16.40;10.75;;;204.90;2252.80;;;;;;5077786;28;20524;-85
2021/11/30 12:11:05;;;;;;;12.27;9.30;;;180.10;2252.80;;;;;;5077887;28;20114;-91
2021/11/30 12:13:30;;;;;;;;;;;204.80;2252.80;;;;;;5078064;28;20120;-83
2021/11/30 12:16:05;;;;;;;12.27;8.00;;;204.80;2252.80;;;;;;5077599;28;19935;-81
2021/11/30 12:18:30;;;;;;;11.27;8.05;;;205.00;2252.80;;;;;;5094880;28;20016;-84
2021/11/30 12:21:25;;;;;;;12.20;8.45;;;205.20;2252.80;;;;;;5095933;28;20065;-85
2021/11/30 12:23:54;;;;;;;12.00;7.28;;;205.10;2252.80;;;;;;5077856;28;20016;-85
2021/11/30 12:26:30;;;;;;;9.68;6.40;;;205.20;2252.80;;;;;;5077224;28;20027;-86
2021/11/30 12:28:57;;;;;;;8.50;6.20;;;204.90;2252.80;;;;;;5076779;28;20020;-86
2021/11/30 12:31:40;;;;;;;7.40;5.78;;;204.90;2252.80;;;;;;5094441;28;20451;-85
2021/11/30 12:34:08;;;;;;;10.05;7.40;;;204.80;2252.80;;;;;;5076889;28;20027;-87
2021/11/30 12:36:42;;;;;;;8.88;6.28;;;204.80;2252.80;;;;;;5077128;28;20028;-85